sensor_id;sensor_type;location;lat;lon;timestamp;P1;durP1;ratioP1;P2;durP2;ratioP2
54953;SDS011;40855;51.072;5.402;2022-12-01T00:00:56;56.17;;;26.42;;
54953;SDS011;40855;51.072;5.402;2022-12-01T00:03:23;60.67;;;28.00;;
54953;SDS011;40855;51.072;5.402;2022-12-01T00:08:25;57.72;;;26.63;;
54953;SDS011;40855;51.072;5.402;2022-12-01T00:10:51;62.85;;;28.45;;
54953;SDS011;40855;51.072;5.402;2022-12-01T00:13:17;63.95;;;28.25;;
54953;SDS011;40855;51.072;5.402;2022-12-01T00:15:43;62.08;;;28.60;;
54953;SDS011;40855;51.072;5.402;2022-12-01T00:18:09;58.40;;;28.08;;
54953;SDS011;40855;51.072;5.402;2022-12-01T00:20:35;64.38;;;29.02;;
54953;SDS011;40855;51.072;5.402;2022-12-01T00:23:00;59.55;;;27.88;;
54953;SDS011;40855;51.072;5.402;2022-12-01T00:25:26;64.07;;;28.70;;
54953;SDS011;40855;51.072;5.402;2022-12-01T00:27:53;58.38;;;27.15;;
54953;SDS011;40855;51.072;5.402;2022-12-01T00:30:20;53.78;;;26.13;;
54953;SDS011;40855;51.072;5.402;2022-12-01T00:32:46;64.80;;;26.85;;
54953;SDS011;40855;51.072;5.402;2022-12-01T00:35:13;61.05;;;27.60;;
54953;SDS011;40855;51.072;5.402;2022-12-01T00:37:40;65.65;;;27.42;;
54953;SDS011;40855;51.072;5.402;2022-12-01T00:40:06;58.65;;;27.42;;
54953;SDS011;40855;51.072;5.402;2022-12-01T00:42:32;61.53;;;27.55;;
54953;SDS011;40855;51.072;5.402;2022-12-01T00:44:59;61.13;;;27.20;;
54953;SDS011;40855;51.072;5.402;2022-12-01T00:47:24;67.53;;;28.83;;
54953;SDS011;40855;51.072;5.402;2022-12-01T00:49:50;62.00;;;28.13;;
54953;SDS011;40855;51.072;5.402;2022-12-01T00:52:16;58.60;;;27.98;;
54953;SDS011;40855;51.072;5.402;2022-12-01T00:54:43;65.65;;;29.08;;
54953;SDS011;40855;51.072;5.402;2022-12-01T00:57:09;60.13;;;28.38;;
54953;SDS011;40855;51.072;5.402;2022-12-01T00:59:35;65.88;;;28.90;;
54953;SDS011;40855;51.072;5.402;2022-12-01T01:02:02;73.00;;;28.23;;
54953;SDS011;40855;51.072;5.402;2022-12-01T01:04:30;73.38;;;29.25;;
54953;SDS011;40855;51.072;5.402;2022-12-01T01:06:57;80.65;;;30.90;;
54953;SDS011;40855;51.072;5.402;2022-12-01T01:09:24;90.03;;;32.55;;
54953;SDS011;40855;51.072;5.402;2022-12-01T01:11:50;90.75;;;31.95;;
54953;SDS011;40855;51.072;5.402;2022-12-01T01:14:17;81.80;;;30.58;;
54953;SDS011;40855;51.072;5.402;2022-12-01T01:16:43;85.45;;;31.60;;
54953;SDS011;40855;51.072;5.402;2022-12-01T01:19:09;81.75;;;31.88;;
54953;SDS011;40855;51.072;5.402;2022-12-01T01:21:34;86.18;;;31.48;;
54953;SDS011;40855;51.072;5.402;2022-12-01T01:24:00;85.10;;;32.67;;
54953;SDS011;40855;51.072;5.402;2022-12-01T01:26:27;83.35;;;31.60;;
54953;SDS011;40855;51.072;5.402;2022-12-01T01:28:58;80.10;;;31.23;;
54953;SDS011;40855;51.072;5.402;2022-12-01T01:31:26;82.88;;;29.98;;
54953;SDS011;40855;51.072;5.402;2022-12-01T01:33:55;83.30;;;29.02;;
54953;SDS011;40855;51.072;5.402;2022-12-01T01:36:21;71.53;;;28.70;;
54953;SDS011;40855;51.072;5.402;2022-12-01T01:38:48;73.95;;;29.27;;
54953;SDS011;40855;51.072;5.402;2022-12-01T01:41:17;74.40;;;28.95;;
54953;SDS011;40855;51.072;5.402;2022-12-01T01:46:23;64.05;;;27.80;;
54953;SDS011;40855;51.072;5.402;2022-12-01T01:51:47;64.05;;;26.40;;
54953;SDS011;40855;51.072;5.402;2022-12-01T01:54:24;64.43;;;26.75;;
54953;SDS011;40855;51.072;5.402;2022-12-01T01:56:53;54.03;;;24.23;;
54953;SDS011;40855;51.072;5.402;2022-12-01T01:59:25;64.38;;;26.05;;
54953;SDS011;40855;51.072;5.402;2022-12-01T02:02:04;53.17;;;23.92;;
54953;SDS011;40855;51.072;5.402;2022-12-01T02:04:40;62.33;;;24.63;;
54953;SDS011;40855;51.072;5.402;2022-12-01T02:07:09;62.38;;;24.67;;
54953;SDS011;40855;51.072;5.402;2022-12-01T02:09:39;54.78;;;23.75;;
54953;SDS011;40855;51.072;5.402;2022-12-01T02:17:46;57.58;;;25.10;;
54953;SDS011;40855;51.072;5.402;2022-12-01T02:34:53;67.55;;;25.45;;
54953;SDS011;40855;51.072;5.402;2022-12-01T02:37:35;67.35;;;24.98;;
54953;SDS011;40855;51.072;5.402;2022-12-01T02:40:13;70.18;;;26.83;;
54953;SDS011;40855;51.072;5.402;2022-12-01T02:42:47;72.72;;;27.48;;
54953;SDS011;40855;51.072;5.402;2022-12-01T02:45:32;79.60;;;29.40;;
54953;SDS011;40855;51.072;5.402;2022-12-01T02:48:19;83.40;;;28.90;;
54953;SDS011;40855;51.072;5.402;2022-12-01T02:50:51;78.20;;;28.42;;
54953;SDS011;40855;51.072;5.402;2022-12-01T02:53:21;82.93;;;28.60;;
54953;SDS011;40855;51.072;5.402;2022-12-01T02:55:56;81.70;;;28.33;;
54953;SDS011;40855;51.072;5.402;2022-12-01T02:58:23;77.88;;;27.33;;
54953;SDS011;40855;51.072;5.402;2022-12-01T03:01:00;79.28;;;28.30;;
54953;SDS011;40855;51.072;5.402;2022-12-01T03:03:55;86.25;;;28.90;;
54953;SDS011;40855;51.072;5.402;2022-12-01T03:14:36;92.65;;;30.70;;
54953;SDS011;40855;51.072;5.402;2022-12-01T03:17:19;94.40;;;31.30;;
54953;SDS011;40855;51.072;5.402;2022-12-01T03:19:54;90.70;;;29.85;;
54953;SDS011;40855;51.072;5.402;2022-12-01T03:22:25;97.97;;;31.58;;
54953;SDS011;40855;51.072;5.402;2022-12-01T03:24:57;89.68;;;30.75;;
54953;SDS011;40855;51.072;5.402;2022-12-01T03:27:26;96.15;;;31.40;;
54953;SDS011;40855;51.072;5.402;2022-12-01T03:29:56;99.65;;;32.92;;
54953;SDS011;40855;51.072;5.402;2022-12-01T03:32:31;100.78;;;31.80;;
54953;SDS011;40855;51.072;5.402;2022-12-01T03:35:05;96.25;;;30.98;;
54953;SDS011;40855;51.072;5.402;2022-12-01T03:40:21;89.30;;;29.58;;
54953;SDS011;40855;51.072;5.402;2022-12-01T03:42:58;93.97;;;31.08;;
54953;SDS011;40855;51.072;5.402;2022-12-01T03:48:00;82.18;;;29.38;;
54953;SDS011;40855;51.072;5.402;2022-12-01T03:50:34;96.75;;;30.70;;
54953;SDS011;40855;51.072;5.402;2022-12-01T03:53:22;85.13;;;28.75;;
54953;SDS011;40855;51.072;5.402;2022-12-01T03:55:52;89.90;;;29.48;;
54953;SDS011;40855;51.072;5.402;2022-12-01T03:58:23;83.80;;;29.05;;
54953;SDS011;40855;51.072;5.402;2022-12-01T04:01:11;91.72;;;29.75;;
54953;SDS011;40855;51.072;5.402;2022-12-01T04:03:37;84.65;;;29.58;;
54953;SDS011;40855;51.072;5.402;2022-12-01T04:06:02;100.47;;;31.30;;
54953;SDS011;40855;51.072;5.402;2022-12-01T04:08:28;92.00;;;31.20;;
54953;SDS011;40855;51.072;5.402;2022-12-01T04:10:55;89.75;;;28.95;;
54953;SDS011;40855;51.072;5.402;2022-12-01T04:13:21;83.32;;;28.25;;
54953;SDS011;40855;51.072;5.402;2022-12-01T04:15:51;79.28;;;29.67;;
54953;SDS011;40855;51.072;5.402;2022-12-01T04:18:18;81.65;;;28.38;;
54953;SDS011;40855;51.072;5.402;2022-12-01T04:20:45;86.47;;;28.10;;
54953;SDS011;40855;51.072;5.402;2022-12-01T04:23:11;81.78;;;28.67;;
54953;SDS011;40855;51.072;5.402;2022-12-01T04:26:00;86.68;;;27.52;;
54953;SDS011;40855;51.072;5.402;2022-12-01T04:28:27;88.63;;;28.38;;
54953;SDS011;40855;51.072;5.402;2022-12-01T04:30:52;84.13;;;27.92;;
54953;SDS011;40855;51.072;5.402;2022-12-01T04:33:18;78.10;;;26.60;;
54953;SDS011;40855;51.072;5.402;2022-12-01T04:35:44;83.28;;;27.30;;
54953;SDS011;40855;51.072;5.402;2022-12-01T04:38:09;77.20;;;27.27;;
54953;SDS011;40855;51.072;5.402;2022-12-01T04:40:37;87.28;;;29.38;;
54953;SDS011;40855;51.072;5.402;2022-12-01T04:43:03;79.88;;;28.20;;
54953;SDS011;40855;51.072;5.402;2022-12-01T04:45:28;84.93;;;29.88;;
54953;SDS011;40855;51.072;5.402;2022-12-01T04:47:54;93.32;;;30.20;;
54953;SDS011;40855;51.072;5.402;2022-12-01T04:50:20;109.43;;;32.92;;
54953;SDS011;40855;51.072;5.402;2022-12-01T04:52:45;118.03;;;32.22;;
54953;SDS011;40855;51.072;5.402;2022-12-01T04:55:11;110.35;;;32.83;;
54953;SDS011;40855;51.072;5.402;2022-12-01T04:57:39;104.82;;;32.20;;
54953;SDS011;40855;51.072;5.402;2022-12-01T05:00:06;109.95;;;32.60;;
54953;SDS011;40855;51.072;5.402;2022-12-01T05:02:37;104.88;;;32.67;;
54953;SDS011;40855;51.072;5.402;2022-12-01T05:05:03;127.50;;;32.55;;
54953;SDS011;40855;51.072;5.402;2022-12-01T05:07:31;99.20;;;32.28;;
54953;SDS011;40855;51.072;5.402;2022-12-01T05:09:56;112.43;;;34.05;;
54953;SDS011;40855;51.072;5.402;2022-12-01T05:12:22;110.72;;;33.60;;
54953;SDS011;40855;51.072;5.402;2022-12-01T05:14:48;114.18;;;33.63;;
54953;SDS011;40855;51.072;5.402;2022-12-01T05:17:14;113.03;;;32.88;;
54953;SDS011;40855;51.072;5.402;2022-12-01T05:19:39;132.77;;;35.72;;
54953;SDS011;40855;51.072;5.402;2022-12-01T05:22:24;133.85;;;35.13;;
54953;SDS011;40855;51.072;5.402;2022-12-01T05:24:49;116.25;;;33.45;;
54953;SDS011;40855;51.072;5.402;2022-12-01T05:27:15;116.55;;;34.72;;
54953;SDS011;40855;51.072;5.402;2022-12-01T05:29:41;127.63;;;34.15;;
54953;SDS011;40855;51.072;5.402;2022-12-01T05:32:06;121.38;;;34.83;;
54953;SDS011;40855;51.072;5.402;2022-12-01T05:34:32;137.90;;;36.13;;
54953;SDS011;40855;51.072;5.402;2022-12-01T05:36:58;128.57;;;34.22;;
54953;SDS011;40855;51.072;5.402;2022-12-01T05:39:24;126.40;;;35.92;;
54953;SDS011;40855;51.072;5.402;2022-12-01T05:41:49;136.40;;;34.67;;
54953;SDS011;40855;51.072;5.402;2022-12-01T05:44:15;136.60;;;36.60;;
54953;SDS011;40855;51.072;5.402;2022-12-01T05:46:40;138.98;;;36.65;;
54953;SDS011;40855;51.072;5.402;2022-12-01T05:49:06;148.30;;;36.30;;
54953;SDS011;40855;51.072;5.402;2022-12-01T05:51:32;149.23;;;38.20;;
54953;SDS011;40855;51.072;5.402;2022-12-01T05:53:58;149.68;;;38.03;;
54953;SDS011;40855;51.072;5.402;2022-12-01T05:56:24;151.85;;;35.92;;
54953;SDS011;40855;51.072;5.402;2022-12-01T05:58:50;139.43;;;36.60;;
54953;SDS011;40855;51.072;5.402;2022-12-01T06:01:15;139.30;;;36.78;;
54953;SDS011;40855;51.072;5.402;2022-12-01T06:03:41;155.15;;;36.75;;
54953;SDS011;40855;51.072;5.402;2022-12-01T06:06:07;153.65;;;36.72;;
54953;SDS011;40855;51.072;5.402;2022-12-01T06:08:32;150.07;;;36.67;;
54953;SDS011;40855;51.072;5.402;2022-12-01T06:10:58;139.02;;;36.85;;
54953;SDS011;40855;51.072;5.402;2022-12-01T06:13:24;151.38;;;37.13;;
54953;SDS011;40855;51.072;5.402;2022-12-01T06:15:59;133.57;;;35.67;;
54953;SDS011;40855;51.072;5.402;2022-12-01T06:18:28;147.93;;;37.83;;
54953;SDS011;40855;51.072;5.402;2022-12-01T06:20:55;153.02;;;36.25;;
54953;SDS011;40855;51.072;5.402;2022-12-01T06:23:21;162.13;;;37.08;;
54953;SDS011;40855;51.072;5.402;2022-12-01T06:25:47;156.10;;;34.72;;
54953;SDS011;40855;51.072;5.402;2022-12-01T06:28:13;155.13;;;36.13;;
54953;SDS011;40855;51.072;5.402;2022-12-01T06:30:38;162.88;;;37.05;;
54953;SDS011;40855;51.072;5.402;2022-12-01T06:33:04;161.43;;;36.35;;
54953;SDS011;40855;51.072;5.402;2022-12-01T06:35:30;151.55;;;35.83;;
54953;SDS011;40855;51.072;5.402;2022-12-01T06:37:56;149.90;;;36.88;;
54953;SDS011;40855;51.072;5.402;2022-12-01T06:40:21;155.68;;;37.08;;
54953;SDS011;40855;51.072;5.402;2022-12-01T06:42:47;150.82;;;35.35;;
54953;SDS011;40855;51.072;5.402;2022-12-01T06:45:13;150.00;;;33.63;;
54953;SDS011;40855;51.072;5.402;2022-12-01T06:47:39;149.23;;;36.60;;
54953;SDS011;40855;51.072;5.402;2022-12-01T06:50:05;146.60;;;35.78;;
54953;SDS011;40855;51.072;5.402;2022-12-01T06:52:34;137.02;;;35.53;;
54953;SDS011;40855;51.072;5.402;2022-12-01T06:55:00;135.68;;;34.50;;
54953;SDS011;40855;51.072;5.402;2022-12-01T06:57:28;148.90;;;36.97;;
54953;SDS011;40855;51.072;5.402;2022-12-01T06:59:54;131.15;;;33.63;;
54953;SDS011;40855;51.072;5.402;2022-12-01T07:02:19;146.65;;;35.78;;
54953;SDS011;40855;51.072;5.402;2022-12-01T07:04:45;121.03;;;32.58;;
54953;SDS011;40855;51.072;5.402;2022-12-01T07:07:11;114.05;;;30.33;;
54953;SDS011;40855;51.072;5.402;2022-12-01T07:09:37;111.97;;;29.23;;
54953;SDS011;40855;51.072;5.402;2022-12-01T07:12:03;101.90;;;28.92;;
54953;SDS011;40855;51.072;5.402;2022-12-01T07:14:28;97.90;;;28.42;;
54953;SDS011;40855;51.072;5.402;2022-12-01T07:16:55;98.25;;;30.00;;
54953;SDS011;40855;51.072;5.402;2022-12-01T07:19:22;92.75;;;27.30;;
54953;SDS011;40855;51.072;5.402;2022-12-01T07:21:47;104.32;;;28.67;;
54953;SDS011;40855;51.072;5.402;2022-12-01T07:24:13;94.13;;;27.92;;
54953;SDS011;40855;51.072;5.402;2022-12-01T07:26:39;85.22;;;27.27;;
54953;SDS011;40855;51.072;5.402;2022-12-01T07:29:05;70.28;;;24.95;;
54953;SDS011;40855;51.072;5.402;2022-12-01T07:31:32;81.05;;;25.55;;
54953;SDS011;40855;51.072;5.402;2022-12-01T07:33:58;72.35;;;24.20;;
54953;SDS011;40855;51.072;5.402;2022-12-01T07:36:23;77.68;;;22.55;;
54953;SDS011;40855;51.072;5.402;2022-12-01T07:38:49;65.43;;;24.50;;
54953;SDS011;40855;51.072;5.402;2022-12-01T07:41:16;60.95;;;21.70;;
54953;SDS011;40855;51.072;5.402;2022-12-01T07:43:45;55.72;;;21.02;;
54953;SDS011;40855;51.072;5.402;2022-12-01T07:46:13;50.75;;;20.73;;
54953;SDS011;40855;51.072;5.402;2022-12-01T07:48:40;51.58;;;19.10;;
54953;SDS011;40855;51.072;5.402;2022-12-01T07:51:07;49.95;;;20.30;;
54953;SDS011;40855;51.072;5.402;2022-12-01T07:53:34;47.42;;;19.70;;
54953;SDS011;40855;51.072;5.402;2022-12-01T07:56:00;49.90;;;21.15;;
54953;SDS011;40855;51.072;5.402;2022-12-01T07:58:27;54.35;;;20.80;;
54953;SDS011;40855;51.072;5.402;2022-12-01T08:00:53;43.80;;;19.23;;
54953;SDS011;40855;51.072;5.402;2022-12-01T08:03:19;49.83;;;18.77;;
54953;SDS011;40855;51.072;5.402;2022-12-01T08:05:47;50.63;;;19.08;;
54953;SDS011;40855;51.072;5.402;2022-12-01T08:08:23;52.20;;;20.23;;
54953;SDS011;40855;51.072;5.402;2022-12-01T08:10:49;47.83;;;19.33;;
54953;SDS011;40855;51.072;5.402;2022-12-01T08:13:15;50.20;;;19.27;;
54953;SDS011;40855;51.072;5.402;2022-12-01T08:15:41;50.92;;;19.75;;
54953;SDS011;40855;51.072;5.402;2022-12-01T08:18:06;50.65;;;19.98;;
54953;SDS011;40855;51.072;5.402;2022-12-01T08:20:32;50.20;;;19.98;;
54953;SDS011;40855;51.072;5.402;2022-12-01T08:23:01;48.80;;;19.77;;
54953;SDS011;40855;51.072;5.402;2022-12-01T08:25:27;44.90;;;19.73;;
54953;SDS011;40855;51.072;5.402;2022-12-01T08:27:53;54.65;;;21.85;;
54953;SDS011;40855;51.072;5.402;2022-12-01T08:30:19;50.58;;;21.10;;
54953;SDS011;40855;51.072;5.402;2022-12-01T08:32:44;54.70;;;20.98;;
54953;SDS011;40855;51.072;5.402;2022-12-01T08:35:10;49.67;;;20.90;;
54953;SDS011;40855;51.072;5.402;2022-12-01T08:37:36;50.78;;;20.17;;
54953;SDS011;40855;51.072;5.402;2022-12-01T08:40:01;51.50;;;20.95;;
54953;SDS011;40855;51.072;5.402;2022-12-01T08:42:27;53.58;;;21.27;;
54953;SDS011;40855;51.072;5.402;2022-12-01T08:44:53;63.03;;;23.40;;
54953;SDS011;40855;51.072;5.402;2022-12-01T08:47:18;57.05;;;23.10;;
54953;SDS011;40855;51.072;5.402;2022-12-01T08:49:44;64.20;;;22.98;;
54953;SDS011;40855;51.072;5.402;2022-12-01T08:52:10;59.22;;;22.73;;
54953;SDS011;40855;51.072;5.402;2022-12-01T08:54:35;56.22;;;23.02;;
54953;SDS011;40855;51.072;5.402;2022-12-01T08:57:01;61.13;;;24.00;;
54953;SDS011;40855;51.072;5.402;2022-12-01T08:59:27;61.08;;;24.15;;
54953;SDS011;40855;51.072;5.402;2022-12-01T09:01:52;62.97;;;24.88;;
54953;SDS011;40855;51.072;5.402;2022-12-01T09:04:22;62.50;;;26.08;;
54953;SDS011;40855;51.072;5.402;2022-12-01T09:06:49;56.63;;;23.90;;
54953;SDS011;40855;51.072;5.402;2022-12-01T09:09:18;61.30;;;24.63;;
54953;SDS011;40855;51.072;5.402;2022-12-01T09:11:49;61.70;;;24.88;;
54953;SDS011;40855;51.072;5.402;2022-12-01T09:14:16;58.60;;;24.25;;
54953;SDS011;40855;51.072;5.402;2022-12-01T09:16:43;62.90;;;25.83;;
54953;SDS011;40855;51.072;5.402;2022-12-01T09:19:10;56.60;;;25.23;;
54953;SDS011;40855;51.072;5.402;2022-12-01T09:21:37;60.33;;;25.33;;
54953;SDS011;40855;51.072;5.402;2022-12-01T09:24:03;63.45;;;26.58;;
54953;SDS011;40855;51.072;5.402;2022-12-01T09:26:30;59.40;;;25.95;;
54953;SDS011;40855;51.072;5.402;2022-12-01T09:28:58;64.65;;;27.45;;
54953;SDS011;40855;51.072;5.402;2022-12-01T09:31:26;68.53;;;25.63;;
54953;SDS011;40855;51.072;5.402;2022-12-01T09:34:11;60.47;;;24.92;;
54953;SDS011;40855;51.072;5.402;2022-12-01T09:36:38;60.60;;;25.52;;
54953;SDS011;40855;51.072;5.402;2022-12-01T09:39:05;61.33;;;26.20;;
54953;SDS011;40855;51.072;5.402;2022-12-01T09:46:53;56.22;;;25.33;;
54953;SDS011;40855;51.072;5.402;2022-12-01T09:50:09;60.53;;;25.38;;
54953;SDS011;40855;51.072;5.402;2022-12-01T09:52:25;62.65;;;25.13;;
54953;SDS011;40855;51.072;5.402;2022-12-01T09:54:54;58.80;;;24.98;;
54953;SDS011;40855;51.072;5.402;2022-12-01T10:00:03;61.63;;;24.75;;
54953;SDS011;40855;51.072;5.402;2022-12-01T10:02:46;53.60;;;25.02;;
54953;SDS011;40855;51.072;5.402;2022-12-01T10:05:21;58.55;;;23.38;;
54953;SDS011;40855;51.072;5.402;2022-12-01T10:08:01;55.92;;;25.45;;
54953;SDS011;40855;51.072;5.402;2022-12-01T10:10:38;52.55;;;22.70;;
54953;SDS011;40855;51.072;5.402;2022-12-01T10:13:11;58.55;;;25.58;;
54953;SDS011;40855;51.072;5.402;2022-12-01T10:15:42;57.45;;;25.25;;
54953;SDS011;40855;51.072;5.402;2022-12-01T10:26:19;56.83;;;24.52;;
54953;SDS011;40855;51.072;5.402;2022-12-01T10:31:47;59.55;;;28.50;;
54953;SDS011;40855;51.072;5.402;2022-12-01T10:36:49;55.85;;;27.48;;
54953;SDS011;40855;51.072;5.402;2022-12-01T10:42:10;51.78;;;25.45;;
54953;SDS011;40855;51.072;5.402;2022-12-01T10:44:39;54.30;;;25.73;;
54953;SDS011;40855;51.072;5.402;2022-12-01T10:47:24;51.15;;;25.17;;
54953;SDS011;40855;51.072;5.402;2022-12-01T10:49:52;44.00;;;22.80;;
54953;SDS011;40855;51.072;5.402;2022-12-01T10:54:58;42.50;;;23.00;;
54953;SDS011;40855;51.072;5.402;2022-12-01T10:57:25;43.92;;;23.45;;
54953;SDS011;40855;51.072;5.402;2022-12-01T11:00:05;54.72;;;26.00;;
54953;SDS011;40855;51.072;5.402;2022-12-01T11:02:32;47.38;;;25.17;;
54953;SDS011;40855;51.072;5.402;2022-12-01T11:05:00;57.67;;;28.02;;
54953;SDS011;40855;51.072;5.402;2022-12-01T11:07:32;50.60;;;26.77;;
54953;SDS011;40855;51.072;5.402;2022-12-01T11:13:12;56.75;;;27.50;;
54953;SDS011;40855;51.072;5.402;2022-12-01T11:15:57;62.22;;;27.42;;
54953;SDS011;40855;51.072;5.402;2022-12-01T11:18:28;58.83;;;29.15;;
54953;SDS011;40855;51.072;5.402;2022-12-01T11:23:37;63.40;;;30.45;;
54953;SDS011;40855;51.072;5.402;2022-12-01T11:28:53;59.97;;;28.85;;
54953;SDS011;40855;51.072;5.402;2022-12-01T11:31:44;63.13;;;29.00;;
54953;SDS011;40855;51.072;5.402;2022-12-01T11:34:19;59.50;;;28.73;;
54953;SDS011;40855;51.072;5.402;2022-12-01T11:37:01;58.30;;;28.98;;
54953;SDS011;40855;51.072;5.402;2022-12-01T11:42:02;58.97;;;28.67;;
54953;SDS011;40855;51.072;5.402;2022-12-01T11:44:38;58.42;;;26.50;;
54953;SDS011;40855;51.072;5.402;2022-12-01T11:47:12;48.38;;;23.90;;
54953;SDS011;40855;51.072;5.402;2022-12-01T11:49:43;49.65;;;25.15;;
54953;SDS011;40855;51.072;5.402;2022-12-01T11:52:28;53.53;;;23.73;;
54953;SDS011;40855;51.072;5.402;2022-12-01T11:55:00;49.72;;;25.25;;
54953;SDS011;40855;51.072;5.402;2022-12-01T11:57:35;48.60;;;24.15;;
54953;SDS011;40855;51.072;5.402;2022-12-01T12:00:13;52.90;;;26.52;;
54953;SDS011;40855;51.072;5.402;2022-12-01T12:18:53;40.25;;;20.20;;
54953;SDS011;40855;51.072;5.402;2022-12-01T12:21:44;43.85;;;21.48;;
54953;SDS011;40855;51.072;5.402;2022-12-01T12:30:30;41.83;;;21.27;;
54953;SDS011;40855;51.072;5.402;2022-12-01T12:33:16;47.15;;;23.13;;
54953;SDS011;40855;51.072;5.402;2022-12-01T12:52:12;48.88;;;24.67;;
54953;SDS011;40855;51.072;5.402;2022-12-01T12:54:50;52.28;;;24.92;;
54953;SDS011;40855;51.072;5.402;2022-12-01T12:57:26;50.05;;;24.35;;
54953;SDS011;40855;51.072;5.402;2022-12-01T12:59:58;48.47;;;24.30;;
54953;SDS011;40855;51.072;5.402;2022-12-01T13:05:18;46.92;;;22.98;;
54953;SDS011;40855;51.072;5.402;2022-12-01T13:08:07;49.75;;;24.80;;
54953;SDS011;40855;51.072;5.402;2022-12-01T13:11:02;44.83;;;22.92;;
54953;SDS011;40855;51.072;5.402;2022-12-01T13:13:39;47.40;;;24.15;;
54953;SDS011;40855;51.072;5.402;2022-12-01T13:16:16;52.75;;;25.30;;
54953;SDS011;40855;51.072;5.402;2022-12-01T13:18:49;57.85;;;26.05;;
54953;SDS011;40855;51.072;5.402;2022-12-01T13:21:21;50.33;;;23.75;;
54953;SDS011;40855;51.072;5.402;2022-12-01T13:23:48;52.28;;;25.15;;
54953;SDS011;40855;51.072;5.402;2022-12-01T13:26:16;55.33;;;25.00;;
54953;SDS011;40855;51.072;5.402;2022-12-01T13:31:15;56.25;;;25.15;;
54953;SDS011;40855;51.072;5.402;2022-12-01T13:36:28;57.58;;;27.92;;
54953;SDS011;40855;51.072;5.402;2022-12-01T13:38:56;55.30;;;26.70;;
54953;SDS011;40855;51.072;5.402;2022-12-01T13:41:27;56.35;;;27.73;;
54953;SDS011;40855;51.072;5.402;2022-12-01T14:00:25;58.65;;;28.08;;
54953;SDS011;40855;51.072;5.402;2022-12-01T14:08:30;64.85;;;28.95;;
54953;SDS011;40855;51.072;5.402;2022-12-01T14:10:59;60.15;;;28.33;;
54953;SDS011;40855;51.072;5.402;2022-12-01T14:16:19;65.82;;;29.08;;
54953;SDS011;40855;51.072;5.402;2022-12-01T14:18:55;59.58;;;28.50;;
54953;SDS011;40855;51.072;5.402;2022-12-01T14:21:44;74.97;;;29.95;;
54953;SDS011;40855;51.072;5.402;2022-12-01T14:26:51;71.38;;;30.58;;
54953;SDS011;40855;51.072;5.402;2022-12-01T14:34:27;72.82;;;29.85;;
54953;SDS011;40855;51.072;5.402;2022-12-01T14:39:45;72.32;;;31.75;;
54953;SDS011;40855;51.072;5.402;2022-12-01T14:42:32;76.97;;;32.72;;
54953;SDS011;40855;51.072;5.402;2022-12-01T14:45:34;79.72;;;33.67;;
54953;SDS011;40855;51.072;5.402;2022-12-01T14:48:08;67.57;;;30.20;;
54953;SDS011;40855;51.072;5.402;2022-12-01T14:53:26;72.15;;;31.88;;
54953;SDS011;40855;51.072;5.402;2022-12-01T14:55:59;69.70;;;32.45;;
54953;SDS011;40855;51.072;5.402;2022-12-01T14:58:38;72.82;;;31.33;;
54953;SDS011;40855;51.072;5.402;2022-12-01T15:01:31;72.03;;;32.70;;
54953;SDS011;40855;51.072;5.402;2022-12-01T15:04:01;82.10;;;33.58;;
54953;SDS011;40855;51.072;5.402;2022-12-01T15:06:29;77.50;;;33.67;;
54953;SDS011;40855;51.072;5.402;2022-12-01T15:09:06;76.18;;;32.88;;
54953;SDS011;40855;51.072;5.402;2022-12-01T15:11:37;70.40;;;31.40;;
54953;SDS011;40855;51.072;5.402;2022-12-01T15:14:20;69.38;;;31.77;;
54953;SDS011;40855;51.072;5.402;2022-12-01T15:17:04;80.03;;;33.20;;
54953;SDS011;40855;51.072;5.402;2022-12-01T15:19:36;69.68;;;32.83;;
54953;SDS011;40855;51.072;5.402;2022-12-01T15:22:05;71.43;;;32.35;;
54953;SDS011;40855;51.072;5.402;2022-12-01T15:24:39;70.55;;;32.38;;
54953;SDS011;40855;51.072;5.402;2022-12-01T15:27:19;72.32;;;31.55;;
54953;SDS011;40855;51.072;5.402;2022-12-01T15:29:56;75.70;;;33.45;;
54953;SDS011;40855;51.072;5.402;2022-12-01T15:32:27;71.75;;;31.60;;
54953;SDS011;40855;51.072;5.402;2022-12-01T15:34:54;70.70;;;30.23;;
54953;SDS011;40855;51.072;5.402;2022-12-01T15:37:26;68.85;;;31.92;;
54953;SDS011;40855;51.072;5.402;2022-12-01T15:39:59;72.22;;;29.35;;
54953;SDS011;40855;51.072;5.402;2022-12-01T15:42:30;68.05;;;29.95;;
54953;SDS011;40855;51.072;5.402;2022-12-01T15:45:15;64.60;;;29.30;;
54953;SDS011;40855;51.072;5.402;2022-12-01T15:47:44;73.10;;;30.73;;
54953;SDS011;40855;51.072;5.402;2022-12-01T15:53:06;75.45;;;34.58;;
54953;SDS011;40855;51.072;5.402;2022-12-01T15:55:46;74.78;;;31.73;;
54953;SDS011;40855;51.072;5.402;2022-12-01T15:58:18;86.18;;;35.88;;
54953;SDS011;40855;51.072;5.402;2022-12-01T16:00:55;85.47;;;37.97;;
54953;SDS011;40855;51.072;5.402;2022-12-01T16:03:35;71.25;;;33.22;;
54953;SDS011;40855;51.072;5.402;2022-12-01T16:06:27;75.43;;;34.42;;
54953;SDS011;40855;51.072;5.402;2022-12-01T16:09:05;67.68;;;31.52;;
54953;SDS011;40855;51.072;5.402;2022-12-01T16:14:33;71.05;;;30.85;;
54953;SDS011;40855;51.072;5.402;2022-12-01T16:17:00;65.90;;;29.42;;
54953;SDS011;40855;51.072;5.402;2022-12-01T16:19:27;72.65;;;31.42;;
54953;SDS011;40855;51.072;5.402;2022-12-01T16:24:46;71.65;;;32.13;;
54953;SDS011;40855;51.072;5.402;2022-12-01T16:27:26;71.82;;;32.72;;
54953;SDS011;40855;51.072;5.402;2022-12-01T16:29:55;72.35;;;31.52;;
54953;SDS011;40855;51.072;5.402;2022-12-01T16:32:32;75.15;;;33.35;;
54953;SDS011;40855;51.072;5.402;2022-12-01T16:35:02;77.35;;;33.15;;
54953;SDS011;40855;51.072;5.402;2022-12-01T16:37:29;79.93;;;36.92;;
54953;SDS011;40855;51.072;5.402;2022-12-01T16:39:55;81.25;;;35.28;;
54953;SDS011;40855;51.072;5.402;2022-12-01T16:42:22;75.03;;;33.80;;
54953;SDS011;40855;51.072;5.402;2022-12-01T16:44:48;76.72;;;33.45;;
54953;SDS011;40855;51.072;5.402;2022-12-01T16:47:16;74.97;;;33.97;;
54953;SDS011;40855;51.072;5.402;2022-12-01T16:49:44;79.32;;;32.90;;
54953;SDS011;40855;51.072;5.402;2022-12-01T16:52:10;75.75;;;33.83;;
54953;SDS011;40855;51.072;5.402;2022-12-01T16:54:36;74.60;;;32.80;;
54953;SDS011;40855;51.072;5.402;2022-12-01T16:57:01;75.20;;;34.00;;
54953;SDS011;40855;51.072;5.402;2022-12-01T16:59:27;82.32;;;35.05;;
54953;SDS011;40855;51.072;5.402;2022-12-01T17:01:53;73.90;;;33.42;;
54953;SDS011;40855;51.072;5.402;2022-12-01T17:04:19;76.03;;;34.33;;
54953;SDS011;40855;51.072;5.402;2022-12-01T17:06:44;75.93;;;33.10;;
54953;SDS011;40855;51.072;5.402;2022-12-01T17:09:10;82.32;;;33.60;;
54953;SDS011;40855;51.072;5.402;2022-12-01T17:11:36;80.57;;;36.00;;
54953;SDS011;40855;51.072;5.402;2022-12-01T17:14:01;82.10;;;36.03;;
54953;SDS011;40855;51.072;5.402;2022-12-01T17:16:27;78.53;;;35.20;;
54953;SDS011;40855;51.072;5.402;2022-12-01T17:18:53;79.00;;;33.00;;
54953;SDS011;40855;51.072;5.402;2022-12-01T17:21:18;86.05;;;36.80;;
54953;SDS011;40855;51.072;5.402;2022-12-01T17:23:44;79.32;;;34.60;;
54953;SDS011;40855;51.072;5.402;2022-12-01T17:26:12;75.28;;;31.65;;
54953;SDS011;40855;51.072;5.402;2022-12-01T17:28:39;74.85;;;32.92;;